sensor_id;sensor_type;location;lat;lon;timestamp;P1;durP1;ratioP1;P2;durP2;ratioP2
42726;SDS011;28372;56.832;60.658;2022-07-24T00:01:40;9.45;;;4.80;;
42726;SDS011;28372;56.832;60.658;2022-07-24T00:04:08;9.20;;;4.97;;
42726;SDS011;28372;56.832;60.658;2022-07-24T00:06:36;10.60;;;5.20;;
42726;SDS011;28372;56.832;60.658;2022-07-24T00:09:04;9.80;;;5.22;;
42726;SDS011;28372;56.832;60.658;2022-07-24T00:11:33;9.65;;;5.00;;
42726;SDS011;28372;56.832;60.658;2022-07-24T00:14:01;11.02;;;5.63;;
42726;SDS011;28372;56.832;60.658;2022-07-24T00:16:29;9.38;;;5.40;;
42726;SDS011;28372;56.832;60.658;2022-07-24T00:18:56;10.30;;;5.55;;
42726;SDS011;28372;56.832;60.658;2022-07-24T00:21:24;10.88;;;5.80;;
42726;SDS011;28372;56.832;60.658;2022-07-24T00:23:51;10.57;;;5.25;;
42726;SDS011;28372;56.832;60.658;2022-07-24T00:26:19;9.13;;;5.25;;
42726;SDS011;28372;56.832;60.658;2022-07-24T00:28:46;10.50;;;5.72;;
42726;SDS011;28372;56.832;60.658;2022-07-24T00:31:15;7.82;;;5.07;;
42726;SDS011;28372;56.832;60.658;2022-07-24T00:33:43;12.32;;;6.13;;
42726;SDS011;28372;56.832;60.658;2022-07-24T00:36:10;10.63;;;6.28;;
42726;SDS011;28372;56.832;60.658;2022-07-24T00:38:38;10.68;;;6.20;;
42726;SDS011;28372;56.832;60.658;2022-07-24T00:41:05;12.85;;;6.20;;
42726;SDS011;28372;56.832;60.658;2022-07-24T00:43:33;14.13;;;6.60;;
42726;SDS011;28372;56.832;60.658;2022-07-24T00:46:00;10.73;;;5.55;;
42726;SDS011;28372;56.832;60.658;2022-07-24T00:48:28;13.68;;;6.55;;
42726;SDS011;28372;56.832;60.658;2022-07-24T00:50:56;11.23;;;6.60;;
42726;SDS011;28372;56.832;60.658;2022-07-24T00:53:24;13.20;;;6.75;;
42726;SDS011;28372;56.832;60.658;2022-07-24T00:55:51;13.95;;;6.70;;
42726;SDS011;28372;56.832;60.658;2022-07-24T00:58:18;12.93;;;6.80;;
42726;SDS011;28372;56.832;60.658;2022-07-24T01:00:47;11.65;;;6.80;;
42726;SDS011;28372;56.832;60.658;2022-07-24T01:03:14;13.77;;;7.43;;
42726;SDS011;28372;56.832;60.658;2022-07-24T01:05:42;15.20;;;6.90;;
42726;SDS011;28372;56.832;60.658;2022-07-24T01:08:11;11.55;;;7.10;;
42726;SDS011;28372;56.832;60.658;2022-07-24T01:10:40;14.70;;;7.35;;
42726;SDS011;28372;56.832;60.658;2022-07-24T01:13:07;15.35;;;8.00;;
42726;SDS011;28372;56.832;60.658;2022-07-24T01:15:36;14.73;;;7.82;;
42726;SDS011;28372;56.832;60.658;2022-07-24T01:18:03;17.85;;;8.40;;
42726;SDS011;28372;56.832;60.658;2022-07-24T01:20:34;17.27;;;8.80;;
42726;SDS011;28372;56.832;60.658;2022-07-24T01:23:03;16.15;;;7.75;;
42726;SDS011;28372;56.832;60.658;2022-07-24T01:25:30;13.65;;;8.18;;
42726;SDS011;28372;56.832;60.658;2022-07-24T01:27:58;15.10;;;7.85;;
42726;SDS011;28372;56.832;60.658;2022-07-24T01:30:25;12.68;;;7.55;;
42726;SDS011;28372;56.832;60.658;2022-07-24T01:32:53;14.15;;;8.15;;
42726;SDS011;28372;56.832;60.658;2022-07-24T01:35:20;15.05;;;8.18;;
42726;SDS011;28372;56.832;60.658;2022-07-24T01:37:50;14.60;;;7.43;;
42726;SDS011;28372;56.832;60.658;2022-07-24T01:40:20;16.02;;;8.15;;
42726;SDS011;28372;56.832;60.658;2022-07-24T01:42:48;16.77;;;8.30;;
42726;SDS011;28372;56.832;60.658;2022-07-24T01:45:17;14.65;;;7.93;;
42726;SDS011;28372;56.832;60.658;2022-07-24T01:47:45;15.07;;;7.95;;
42726;SDS011;28372;56.832;60.658;2022-07-24T01:50:13;13.40;;;7.68;;
42726;SDS011;28372;56.832;60.658;2022-07-24T01:52:41;14.20;;;7.90;;
42726;SDS011;28372;56.832;60.658;2022-07-24T01:55:09;15.63;;;8.02;;
42726;SDS011;28372;56.832;60.658;2022-07-24T01:57:38;14.07;;;8.18;;
42726;SDS011;28372;56.832;60.658;2022-07-24T02:00:06;13.40;;;7.93;;
42726;SDS011;28372;56.832;60.658;2022-07-24T02:02:40;11.68;;;7.72;;
42726;SDS011;28372;56.832;60.658;2022-07-24T02:05:10;12.25;;;7.70;;
42726;SDS011;28372;56.832;60.658;2022-07-24T02:07:43;15.30;;;8.10;;
42726;SDS011;28372;56.832;60.658;2022-07-24T02:10:12;13.75;;;7.80;;
42726;SDS011;28372;56.832;60.658;2022-07-24T02:12:40;12.52;;;7.93;;
42726;SDS011;28372;56.832;60.658;2022-07-24T02:15:28;11.90;;;7.00;;
42726;SDS011;28372;56.832;60.658;2022-07-24T02:17:57;13.15;;;7.68;;
42726;SDS011;28372;56.832;60.658;2022-07-24T02:20:26;11.27;;;7.20;;
42726;SDS011;28372;56.832;60.658;2022-07-24T02:22:54;13.40;;;7.25;;
42726;SDS011;28372;56.832;60.658;2022-07-24T02:25:22;11.57;;;7.10;;
42726;SDS011;28372;56.832;60.658;2022-07-24T02:27:49;15.13;;;7.70;;
42726;SDS011;28372;56.832;60.658;2022-07-24T02:30:18;12.02;;;7.30;;
42726;SDS011;28372;56.832;60.658;2022-07-24T02:32:47;11.65;;;6.88;;
42726;SDS011;28372;56.832;60.658;2022-07-24T02:35:15;12.65;;;6.75;;
42726;SDS011;28372;56.832;60.658;2022-07-24T02:37:43;12.73;;;7.20;;
42726;SDS011;28372;56.832;60.658;2022-07-24T02:40:12;15.25;;;6.82;;
42726;SDS011;28372;56.832;60.658;2022-07-24T02:42:41;11.95;;;6.68;;
42726;SDS011;28372;56.832;60.658;2022-07-24T02:45:09;11.15;;;6.72;;
42726;SDS011;28372;56.832;60.658;2022-07-24T02:47:45;13.00;;;6.90;;
42726;SDS011;28372;56.832;60.658;2022-07-24T02:50:14;10.38;;;6.20;;
42726;SDS011;28372;56.832;60.658;2022-07-24T02:52:43;12.73;;;6.60;;
42726;SDS011;28372;56.832;60.658;2022-07-24T02:55:11;10.77;;;6.07;;
42726;SDS011;28372;56.832;60.658;2022-07-24T02:57:39;11.15;;;6.75;;
42726;SDS011;28372;56.832;60.658;2022-07-24T03:00:08;13.32;;;6.20;;
42726;SDS011;28372;56.832;60.658;2022-07-24T03:02:38;11.15;;;6.07;;
42726;SDS011;28372;56.832;60.658;2022-07-24T03:05:06;10.65;;;5.70;;
42726;SDS011;28372;56.832;60.658;2022-07-24T03:07:35;12.73;;;5.85;;
42726;SDS011;28372;56.832;60.658;2022-07-24T03:10:04;9.65;;;5.80;;
42726;SDS011;28372;56.832;60.658;2022-07-24T03:12:33;12.88;;;5.40;;
42726;SDS011;28372;56.832;60.658;2022-07-24T03:15:01;11.32;;;5.75;;
42726;SDS011;28372;56.832;60.658;2022-07-24T03:17:29;11.20;;;5.80;;
42726;SDS011;28372;56.832;60.658;2022-07-24T03:19:56;10.60;;;5.50;;
42726;SDS011;28372;56.832;60.658;2022-07-24T03:22:26;9.90;;;5.35;;
42726;SDS011;28372;56.832;60.658;2022-07-24T03:24:54;7.78;;;4.85;;
42726;SDS011;28372;56.832;60.658;2022-07-24T03:27:22;10.95;;;5.43;;
42726;SDS011;28372;56.832;60.658;2022-07-24T03:29:49;11.23;;;5.50;;
42726;SDS011;28372;56.832;60.658;2022-07-24T03:32:16;11.45;;;5.55;;
42726;SDS011;28372;56.832;60.658;2022-07-24T03:34:44;8.63;;;5.70;;
42726;SDS011;28372;56.832;60.658;2022-07-24T03:37:11;11.50;;;5.40;;
42726;SDS011;28372;56.832;60.658;2022-07-24T03:39:39;9.40;;;5.22;;
42726;SDS011;28372;56.832;60.658;2022-07-24T03:42:06;8.38;;;5.35;;
42726;SDS011;28372;56.832;60.658;2022-07-24T03:44:34;10.35;;;4.78;;
42726;SDS011;28372;56.832;60.658;2022-07-24T03:47:01;8.80;;;4.90;;
42726;SDS011;28372;56.832;60.658;2022-07-24T03:49:29;9.63;;;4.55;;
42726;SDS011;28372;56.832;60.658;2022-07-24T03:51:58;9.07;;;4.78;;
42726;SDS011;28372;56.832;60.658;2022-07-24T03:54:26;6.75;;;4.95;;
42726;SDS011;28372;56.832;60.658;2022-07-24T03:56:53;7.65;;;5.00;;
42726;SDS011;28372;56.832;60.658;2022-07-24T03:59:21;10.13;;;4.72;;
42726;SDS011;28372;56.832;60.658;2022-07-24T04:01:48;10.07;;;5.10;;
42726;SDS011;28372;56.832;60.658;2022-07-24T04:04:16;8.93;;;4.85;;
42726;SDS011;28372;56.832;60.658;2022-07-24T04:06:43;8.13;;;4.85;;
42726;SDS011;28372;56.832;60.658;2022-07-24T04:09:11;8.13;;;4.70;;
42726;SDS011;28372;56.832;60.658;2022-07-24T04:11:40;8.35;;;4.70;;
42726;SDS011;28372;56.832;60.658;2022-07-24T04:14:07;6.18;;;4.40;;
42726;SDS011;28372;56.832;60.658;2022-07-24T04:16:35;6.70;;;4.40;;
42726;SDS011;28372;56.832;60.658;2022-07-24T04:19:02;6.80;;;4.00;;
42726;SDS011;28372;56.832;60.658;2022-07-24T04:21:33;7.13;;;4.20;;
42726;SDS011;28372;56.832;60.658;2022-07-24T04:24:00;6.75;;;4.28;;
42726;SDS011;28372;56.832;60.658;2022-07-24T04:26:28;8.50;;;4.40;;
42726;SDS011;28372;56.832;60.658;2022-07-24T04:28:56;5.47;;;3.97;;
42726;SDS011;28372;56.832;60.658;2022-07-24T04:31:23;7.05;;;3.85;;
42726;SDS011;28372;56.832;60.658;2022-07-24T04:33:54;7.25;;;4.03;;
42726;SDS011;28372;56.832;60.658;2022-07-24T04:36:22;6.55;;;4.00;;
42726;SDS011;28372;56.832;60.658;2022-07-24T04:38:49;6.95;;;3.72;;
42726;SDS011;28372;56.832;60.658;2022-07-24T04:41:17;7.22;;;3.70;;
42726;SDS011;28372;56.832;60.658;2022-07-24T04:43:44;5.57;;;3.67;;
42726;SDS011;28372;56.832;60.658;2022-07-24T04:46:12;6.60;;;3.70;;
42726;SDS011;28372;56.832;60.658;2022-07-24T04:48:39;7.97;;;3.78;;
42726;SDS011;28372;56.832;60.658;2022-07-24T04:51:07;7.75;;;3.50;;
42726;SDS011;28372;56.832;60.658;2022-07-24T04:53:34;6.18;;;3.83;;
42726;SDS011;28372;56.832;60.658;2022-07-24T04:56:02;6.50;;;3.40;;
42726;SDS011;28372;56.832;60.658;2022-07-24T04:58:29;6.43;;;3.50;;
42726;SDS011;28372;56.832;60.658;2022-07-24T05:00:57;5.50;;;3.28;;
42726;SDS011;28372;56.832;60.658;2022-07-24T05:03:25;7.30;;;3.60;;
42726;SDS011;28372;56.832;60.658;2022-07-24T05:05:52;7.65;;;3.50;;
42726;SDS011;28372;56.832;60.658;2022-07-24T05:08:20;8.45;;;3.50;;
42726;SDS011;28372;56.832;60.658;2022-07-24T05:10:48;8.15;;;3.75;;
42726;SDS011;28372;56.832;60.658;2022-07-24T05:13:15;6.95;;;3.58;;
42726;SDS011;28372;56.832;60.658;2022-07-24T05:15:44;6.75;;;3.50;;
42726;SDS011;28372;56.832;60.658;2022-07-24T05:18:11;6.47;;;3.30;;
42726;SDS011;28372;56.832;60.658;2022-07-24T05:20:39;6.35;;;3.70;;
42726;SDS011;28372;56.832;60.658;2022-07-24T05:23:06;7.95;;;3.65;;
42726;SDS011;28372;56.832;60.658;2022-07-24T05:25:34;6.57;;;3.53;;
42726;SDS011;28372;56.832;60.658;2022-07-24T05:28:01;5.88;;;3.40;;
42726;SDS011;28372;56.832;60.658;2022-07-24T05:30:29;4.28;;;2.90;;
42726;SDS011;28372;56.832;60.658;2022-07-24T05:32:56;6.82;;;3.40;;
42726;SDS011;28372;56.832;60.658;2022-07-24T05:35:24;6.63;;;3.50;;
42726;SDS011;28372;56.832;60.658;2022-07-24T05:37:55;5.80;;;3.30;;
42726;SDS011;28372;56.832;60.658;2022-07-24T05:40:23;6.60;;;3.10;;
42726;SDS011;28372;56.832;60.658;2022-07-24T05:42:50;5.80;;;2.95;;
42726;SDS011;28372;56.832;60.658;2022-07-24T05:45:18;4.88;;;3.10;;
42726;SDS011;28372;56.832;60.658;2022-07-24T05:47:45;4.10;;;2.80;;
42726;SDS011;28372;56.832;60.658;2022-07-24T05:50:13;5.53;;;2.35;;
42726;SDS011;28372;56.832;60.658;2022-07-24T05:52:41;5.57;;;2.55;;
42726;SDS011;28372;56.832;60.658;2022-07-24T05:55:09;3.83;;;2.53;;
42726;SDS011;28372;56.832;60.658;2022-07-24T05:57:44;5.93;;;2.78;;
42726;SDS011;28372;56.832;60.658;2022-07-24T06:00:15;6.10;;;2.58;;
42726;SDS011;28372;56.832;60.658;2022-07-24T06:02:50;6.15;;;2.60;;
42726;SDS011;28372;56.832;60.658;2022-07-24T06:05:18;4.50;;;2.50;;
42726;SDS011;28372;56.832;60.658;2022-07-24T06:07:45;3.58;;;2.65;;
42726;SDS011;28372;56.832;60.658;2022-07-24T06:10:13;6.90;;;2.72;;
42726;SDS011;28372;56.832;60.658;2022-07-24T06:12:41;4.38;;;2.53;;
42726;SDS011;28372;56.832;60.658;2022-07-24T06:15:10;6.47;;;2.70;;
42726;SDS011;28372;56.832;60.658;2022-07-24T06:17:38;4.40;;;2.58;;
42726;SDS011;28372;56.832;60.658;2022-07-24T06:20:07;4.60;;;2.90;;
42726;SDS011;28372;56.832;60.658;2022-07-24T06:22:35;3.70;;;2.60;;
42726;SDS011;28372;56.832;60.658;2022-07-24T06:25:03;4.63;;;2.72;;
42726;SDS011;28372;56.832;60.658;2022-07-24T06:27:31;5.85;;;2.80;;
42726;SDS011;28372;56.832;60.658;2022-07-24T06:29:58;6.57;;;2.72;;
42726;SDS011;28372;56.832;60.658;2022-07-24T06:32:26;4.68;;;2.55;;
42726;SDS011;28372;56.832;60.658;2022-07-24T06:34:53;5.00;;;2.65;;
42726;SDS011;28372;56.832;60.658;2022-07-24T06:37:21;5.80;;;2.78;;
42726;SDS011;28372;56.832;60.658;2022-07-24T06:39:48;5.90;;;2.60;;
42726;SDS011;28372;56.832;60.658;2022-07-24T06:42:16;3.90;;;2.38;;
42726;SDS011;28372;56.832;60.658;2022-07-24T06:44:43;5.00;;;2.67;;
42726;SDS011;28372;56.832;60.658;2022-07-24T06:47:10;6.28;;;2.60;;
42726;SDS011;28372;56.832;60.658;2022-07-24T06:49:38;3.90;;;2.60;;
42726;SDS011;28372;56.832;60.658;2022-07-24T06:52:05;3.55;;;2.58;;
42726;SDS011;28372;56.832;60.658;2022-07-24T06:54:33;4.88;;;2.65;;
42726;SDS011;28372;56.832;60.658;2022-07-24T06:57:00;6.38;;;2.85;;
42726;SDS011;28372;56.832;60.658;2022-07-24T06:59:28;5.90;;;2.90;;
42726;SDS011;28372;56.832;60.658;2022-07-24T07:01:55;7.05;;;2.92;;
42726;SDS011;28372;56.832;60.658;2022-07-24T07:04:23;6.80;;;2.88;;
42726;SDS011;28372;56.832;60.658;2022-07-24T07:06:50;4.88;;;2.88;;
42726;SDS011;28372;56.832;60.658;2022-07-24T07:09:18;7.50;;;3.10;;
42726;SDS011;28372;56.832;60.658;2022-07-24T07:11:45;3.72;;;2.78;;
42726;SDS011;28372;56.832;60.658;2022-07-24T07:14:18;3.67;;;2.50;;
42726;SDS011;28372;56.832;60.658;2022-07-24T07:16:46;3.85;;;2.72;;
42726;SDS011;28372;56.832;60.658;2022-07-24T07:19:14;6.03;;;2.88;;
42726;SDS011;28372;56.832;60.658;2022-07-24T07:21:41;5.95;;;2.80;;
42726;SDS011;28372;56.832;60.658;2022-07-24T07:24:09;4.35;;;2.55;;
42726;SDS011;28372;56.832;60.658;2022-07-24T07:26:36;7.78;;;3.00;;
42726;SDS011;28372;56.832;60.658;2022-07-24T07:29:04;5.38;;;2.90;;
42726;SDS011;28372;56.832;60.658;2022-07-24T07:31:32;7.57;;;3.35;;
42726;SDS011;28372;56.832;60.658;2022-07-24T07:33:59;8.07;;;3.05;;
42726;SDS011;28372;56.832;60.658;2022-07-24T07:36:27;5.88;;;3.13;;
42726;SDS011;28372;56.832;60.658;2022-07-24T07:38:55;5.32;;;3.13;;
42726;SDS011;28372;56.832;60.658;2022-07-24T07:41:24;6.28;;;3.30;;
42726;SDS011;28372;56.832;60.658;2022-07-24T07:43:52;5.63;;;3.30;;
42726;SDS011;28372;56.832;60.658;2022-07-24T07:46:19;6.95;;;3.55;;
42726;SDS011;28372;56.832;60.658;2022-07-24T07:48:47;5.93;;;3.30;;
42726;SDS011;28372;56.832;60.658;2022-07-24T07:51:14;8.48;;;3.03;;
42726;SDS011;28372;56.832;60.658;2022-07-24T07:53:49;6.40;;;3.10;;
42726;SDS011;28372;56.832;60.658;2022-07-24T07:56:16;5.57;;;2.92;;
42726;SDS011;28372;56.832;60.658;2022-07-24T07:58:47;6.03;;;2.83;;
42726;SDS011;28372;56.832;60.658;2022-07-24T08:01:14;4.38;;;3.03;;
42726;SDS011;28372;56.832;60.658;2022-07-24T08:03:42;4.50;;;2.80;;
42726;SDS011;28372;56.832;60.658;2022-07-24T08:06:09;3.80;;;2.90;;
42726;SDS011;28372;56.832;60.658;2022-07-24T08:08:41;5.03;;;3.33;;
42726;SDS011;28372;56.832;60.658;2022-07-24T08:11:08;4.93;;;2.80;;
42726;SDS011;28372;56.832;60.658;2022-07-24T08:13:36;5.38;;;2.95;;
42726;SDS011;28372;56.832;60.658;2022-07-24T08:16:03;4.95;;;2.97;;
42726;SDS011;28372;56.832;60.658;2022-07-24T08:18:31;7.18;;;3.17;;
42726;SDS011;28372;56.832;60.658;2022-07-24T08:20:59;4.68;;;2.80;;
42726;SDS011;28372;56.832;60.658;2022-07-24T08:23:26;6.30;;;3.08;;
42726;SDS011;28372;56.832;60.658;2022-07-24T08:25:54;5.60;;;3.08;;
42726;SDS011;28372;56.832;60.658;2022-07-24T08:28:21;5.10;;;3.00;;
42726;SDS011;28372;56.832;60.658;2022-07-24T08:30:50;4.80;;;2.88;;
42726;SDS011;28372;56.832;60.658;2022-07-24T08:33:18;6.88;;;3.15;;
42726;SDS011;28372;56.832;60.658;2022-07-24T08:35:45;7.07;;;2.80;;
42726;SDS011;28372;56.832;60.658;2022-07-24T08:38:13;4.78;;;2.88;;
42726;SDS011;28372;56.832;60.658;2022-07-24T08:40:41;4.57;;;2.80;;
42726;SDS011;28372;56.832;60.658;2022-07-24T08:43:09;7.55;;;3.20;;
42726;SDS011;28372;56.832;60.658;2022-07-24T08:45:38;3.97;;;3.05;;
42726;SDS011;28372;56.832;60.658;2022-07-24T08:48:07;5.93;;;3.15;;
42726;SDS011;28372;56.832;60.658;2022-07-24T08:50:37;6.40;;;3.28;;
42726;SDS011;28372;56.832;60.658;2022-07-24T08:53:06;5.55;;;3.30;;
42726;SDS011;28372;56.832;60.658;2022-07-24T08:55:35;6.80;;;3.10;;
42726;SDS011;28372;56.832;60.658;2022-07-24T08:58:02;4.63;;;3.08;;
42726;SDS011;28372;56.832;60.658;2022-07-24T09:00:30;5.43;;;2.95;;
42726;SDS011;28372;56.832;60.658;2022-07-24T09:02:58;5.10;;;2.92;;
42726;SDS011;28372;56.832;60.658;2022-07-24T09:05:26;6.18;;;3.03;;
42726;SDS011;28372;56.832;60.658;2022-07-24T09:08:10;5.40;;;3.28;;
42726;SDS011;28372;56.832;60.658;2022-07-24T09:10:38;5.40;;;2.95;;
42726;SDS011;28372;56.832;60.658;2022-07-24T09:13:13;5.18;;;2.90;;
42726;SDS011;28372;56.832;60.658;2022-07-24T09:15:45;5.45;;;3.20;;
42726;SDS011;28372;56.832;60.658;2022-07-24T09:21:22;5.38;;;3.00;;
42726;SDS011;28372;56.832;60.658;2022-07-24T09:23:48;4.82;;;3.00;;
42726;SDS011;28372;56.832;60.658;2022-07-24T09:26:16;3.83;;;2.83;;
42726;SDS011;28372;56.832;60.658;2022-07-24T09:28:48;3.90;;;2.72;;
42726;SDS011;28372;56.832;60.658;2022-07-24T09:33:43;10.52;;;3.47;;
42726;SDS011;28372;56.832;60.658;2022-07-24T09:36:14;5.03;;;2.75;;
42726;SDS011;28372;56.832;60.658;2022-07-24T09:38:44;5.72;;;3.17;;
42726;SDS011;28372;56.832;60.658;2022-07-24T09:41:18;5.68;;;3.10;;
42726;SDS011;28372;56.832;60.658;2022-07-24T09:43:55;6.25;;;3.38;;
42726;SDS011;28372;56.832;60.658;2022-07-24T09:46:25;5.53;;;3.88;;
42726;SDS011;28372;56.832;60.658;2022-07-24T09:48:55;5.28;;;3.40;;
42726;SDS011;28372;56.832;60.658;2022-07-24T09:51:25;7.47;;;3.22;;
42726;SDS011;28372;56.832;60.658;2022-07-24T09:53:55;6.82;;;3.05;;
42726;SDS011;28372;56.832;60.658;2022-07-24T09:56:24;6.82;;;3.78;;
42726;SDS011;28372;56.832;60.658;2022-07-24T09:58:53;7.32;;;3.92;;
42726;SDS011;28372;56.832;60.658;2022-07-24T10:01:23;5.53;;;3.45;;
42726;SDS011;28372;56.832;60.658;2022-07-24T10:03:54;7.35;;;3.75;;
42726;SDS011;28372;56.832;60.658;2022-07-24T10:06:27;5.35;;;3.22;;
42726;SDS011;28372;56.832;60.658;2022-07-24T10:08:55;6.22;;;3.88;;
42726;SDS011;28372;56.832;60.658;2022-07-24T10:11:23;5.00;;;3.05;;
42726;SDS011;28372;56.832;60.658;2022-07-24T10:13:51;7.70;;;3.83;;
42726;SDS011;28372;56.832;60.658;2022-07-24T10:16:25;7.07;;;3.50;;
42726;SDS011;28372;56.832;60.658;2022-07-24T10:18:58;6.43;;;3.70;;
42726;SDS011;28372;56.832;60.658;2022-07-24T10:21:31;6.00;;;3.72;;
42726;SDS011;28372;56.832;60.658;2022-07-24T10:29:08;6.80;;;3.80;;
42726;SDS011;28372;56.832;60.658;2022-07-24T10:31:40;5.20;;;4.05;;
42726;SDS011;28372;56.832;60.658;2022-07-24T10:34:10;7.28;;;4.32;;
42726;SDS011;28372;56.832;60.658;2022-07-24T10:47:45;5.88;;;3.90;;
42726;SDS011;28372;56.832;60.658;2022-07-24T10:50:13;7.63;;;4.13;;
42726;SDS011;28372;56.832;60.658;2022-07-24T10:52:41;5.75;;;3.67;;
42726;SDS011;28372;56.832;60.658;2022-07-24T11:00:47;5.55;;;3.80;;
42726;SDS011;28372;56.832;60.658;2022-07-24T11:03:20;5.70;;;3.92;;
42726;SDS011;28372;56.832;60.658;2022-07-24T11:06:03;6.40;;;4.18;;
42726;SDS011;28372;56.832;60.658;2022-07-24T11:11:09;7.05;;;3.97;;
42726;SDS011;28372;56.832;60.658;2022-07-24T11:13:39;6.82;;;4.40;;
42726;SDS011;28372;56.832;60.658;2022-07-24T11:21:36;5.70;;;4.20;;
42726;SDS011;28372;56.832;60.658;2022-07-24T11:31:52;7.07;;;4.03;;
42726;SDS011;28372;56.832;60.658;2022-07-24T11:34:22;6.68;;;3.92;;
42726;SDS011;28372;56.832;60.658;2022-07-24T11:36:50;7.13;;;4.60;;
42726;SDS011;28372;56.832;60.658;2022-07-24T11:39:19;5.90;;;4.20;;
42726;SDS011;28372;56.832;60.658;2022-07-24T11:41:56;7.35;;;4.75;;
42726;SDS011;28372;56.832;60.658;2022-07-24T11:47:14;5.38;;;3.58;;
42726;SDS011;28372;56.832;60.658;2022-07-24T11:49:52;6.60;;;3.80;;
42726;SDS011;28372;56.832;60.658;2022-07-24T11:54:53;9.50;;;5.05;;
42726;SDS011;28372;56.832;60.658;2022-07-24T11:57:26;5.60;;;3.78;;
42726;SDS011;28372;56.832;60.658;2022-07-24T12:00:16;5.45;;;3.58;;
42726;SDS011;28372;56.832;60.658;2022-07-24T12:02:50;6.95;;;4.53;;
42726;SDS011;28372;56.832;60.658;2022-07-24T12:05:26;7.95;;;4.07;;
42726;SDS011;28372;56.832;60.658;2022-07-24T12:07:58;5.75;;;3.90;;
42726;SDS011;28372;56.832;60.658;2022-07-24T12:10:27;10.38;;;4.30;;
42726;SDS011;28372;56.832;60.658;2022-07-24T12:12:56;15.05;;;4.20;;
42726;SDS011;28372;56.832;60.658;2022-07-24T12:15:25;11.23;;;4.22;;
42726;SDS011;28372;56.832;60.658;2022-07-24T12:17:54;7.07;;;4.50;;
42726;SDS011;28372;56.832;60.658;2022-07-24T12:20:23;8.18;;;4.47;;
42726;SDS011;28372;56.832;60.658;2022-07-24T12:23:06;9.52;;;4.43;;
42726;SDS011;28372;56.832;60.658;2022-07-24T12:25:35;7.68;;;3.95;;
42726;SDS011;28372;56.832;60.658;2022-07-24T12:30:36;8.98;;;4.53;;
42726;SDS011;28372;56.832;60.658;2022-07-24T12:33:18;8.55;;;4.80;;
42726;SDS011;28372;56.832;60.658;2022-07-24T12:38:33;7.90;;;4.32;;
42726;SDS011;28372;56.832;60.658;2022-07-24T12:41:09;7.90;;;4.18;;
42726;SDS011;28372;56.832;60.658;2022-07-24T12:49:12;6.53;;;4.20;;
42726;SDS011;28372;56.832;60.658;2022-07-24T12:54:23;7.50;;;4.78;;
42726;SDS011;28372;56.832;60.658;2022-07-24T12:57:00;6.13;;;4.13;;
42726;SDS011;28372;56.832;60.658;2022-07-24T12:59:38;7.03;;;3.78;;
42726;SDS011;28372;56.832;60.658;2022-07-24T13:02:08;7.28;;;4.15;;
42726;SDS011;28372;56.832;60.658;2022-07-24T13:04:41;7.22;;;4.28;;
42726;SDS011;28372;56.832;60.658;2022-07-24T13:07:10;6.40;;;4.10;;
42726;SDS011;28372;56.832;60.658;2022-07-24T13:09:39;6.45;;;4.10;;
42726;SDS011;28372;56.832;60.658;2022-07-24T13:12:07;8.52;;;4.68;;
42726;SDS011;28372;56.832;60.658;2022-07-24T13:14:36;6.30;;;4.38;;
42726;SDS011;28372;56.832;60.658;2022-07-24T13:17:05;8.68;;;4.45;;
42726;SDS011;28372;56.832;60.658;2022-07-24T13:19:39;6.53;;;4.30;;
42726;SDS011;28372;56.832;60.658;2022-07-24T13:22:08;6.75;;;4.68;;
42726;SDS011;28372;56.832;60.658;2022-07-24T13:24:36;7.50;;;4.38;;
42726;SDS011;28372;56.832;60.658;2022-07-24T13:27:05;7.38;;;4.03;;
42726;SDS011;28372;56.832;60.658;2022-07-24T13:29:33;5.82;;;3.85;;
42726;SDS011;28372;56.832;60.658;2022-07-24T13:32:02;6.43;;;4.32;;
42726;SDS011;28372;56.832;60.658;2022-07-24T13:34:30;8.10;;;4.32;;
42726;SDS011;28372;56.832;60.658;2022-07-24T13:37:00;8.13;;;4.45;;
42726;SDS011;28372;56.832;60.658;2022-07-24T13:39:29;7.65;;;4.50;;
42726;SDS011;28372;56.832;60.658;2022-07-24T13:41:56;5.85;;;4.18;;
42726;SDS011;28372;56.832;60.658;2022-07-24T13:44:24;6.72;;;4.20;;
42726;SDS011;28372;56.832;60.658;2022-07-24T13:46:52;7.35;;;4.20;;
42726;SDS011;28372;56.832;60.658;2022-07-24T13:49:19;6.80;;;4.57;;
42726;SDS011;28372;56.832;60.658;2022-07-24T13:51:47;5.88;;;4.32;;
42726;SDS011;28372;56.832;60.658;2022-07-24T13:54:15;7.22;;;5.50;;
42726;SDS011;28372;56.832;60.658;2022-07-24T13:56:42;6.25;;;4.28;;
42726;SDS011;28372;56.832;60.658;2022-07-24T13:59:11;6.32;;;3.95;;
42726;SDS011;28372;56.832;60.658;2022-07-24T14:01:39;8.77;;;4.50;;
42726;SDS011;28372;56.832;60.658;2022-07-24T14:04:06;6.78;;;4.47;;
42726;SDS011;28372;56.832;60.658;2022-07-24T14:06:57;6.97;;;4.53;;
42726;SDS011;28372;56.832;60.658;2022-07-24T14:09:30;6.32;;;4.20;;
42726;SDS011;28372;56.832;60.658;2022-07-24T14:12:00;8.88;;;5.25;;
42726;SDS011;28372;56.832;60.658;2022-07-24T14:14:28;11.13;;;4.68;;
42726;SDS011;28372;56.832;60.658;2022-07-24T14:16:56;10.00;;;4.30;;
42726;SDS011;28372;56.832;60.658;2022-07-24T14:19:27;7.90;;;4.28;;
42726;SDS011;28372;56.832;60.658;2022-07-24T14:21:54;10.05;;;4.82;;
42726;SDS011;28372;56.832;60.658;2022-07-24T14:24:22;6.45;;;4.07;;
42726;SDS011;28372;56.832;60.658;2022-07-24T14:26:49;8.20;;;4.70;;
42726;SDS011;28372;56.832;60.658;2022-07-24T14:29:17;7.03;;;4.45;;
42726;SDS011;28372;56.832;60.658;2022-07-24T14:31:45;9.63;;;4.25;;
42726;SDS011;28372;56.832;60.658;2022-07-24T14:34:13;7.85;;;5.85;;
42726;SDS011;28372;56.832;60.658;2022-07-24T14:36:42;6.90;;;4.55;;
42726;SDS011;28372;56.832;60.658;2022-07-24T14:39:11;7.72;;;5.03;;
42726;SDS011;28372;56.832;60.658;2022-07-24T14:41:40;7.20;;;4.72;;
42726;SDS011;28372;56.832;60.658;2022-07-24T14:44:08;9.15;;;4.60;;
42726;SDS011;28372;56.832;60.658;2022-07-24T14:46:38;9.00;;;4.55;;
42726;SDS011;28372;56.832;60.658;2022-07-24T14:49:07;7.30;;;4.80;;
42726;SDS011;28372;56.832;60.658;2022-07-24T14:51:35;7.80;;;5.07;;
42726;SDS011;28372;56.832;60.658;2022-07-24T14:54:04;11.80;;;5.30;;
42726;SDS011;28372;56.832;60.658;2022-07-24T14:56:34;7.72;;;4.97;;
42726;SDS011;28372;56.832;60.658;2022-07-24T14:59:06;9.03;;;4.90;;
42726;SDS011;28372;56.832;60.658;2022-07-24T15:01:45;12.02;;;5.28;;
42726;SDS011;28372;56.832;60.658;2022-07-24T15:04:13;8.68;;;4.93;;
42726;SDS011;28372;56.832;60.658;2022-07-24T15:06:40;12.07;;;5.22;;
42726;SDS011;28372;56.832;60.658;2022-07-24T15:09:08;8.13;;;5.03;;
42726;SDS011;28372;56.832;60.658;2022-07-24T15:11:35;11.95;;;4.65;;
42726;SDS011;28372;56.832;60.658;2022-07-24T15:14:04;10.32;;;5.65;;
42726;SDS011;28372;56.832;60.658;2022-07-24T15:16:33;10.88;;;5.03;;
42726;SDS011;28372;56.832;60.658;2022-07-24T15:19:02;10.82;;;5.63;;
42726;SDS011;28372;56.832;60.658;2022-07-24T15:21:34;10.82;;;5.60;;
42726;SDS011;28372;56.832;60.658;2022-07-24T15:24:03;8.88;;;5.05;;
42726;SDS011;28372;56.832;60.658;2022-07-24T15:26:33;14.60;;;6.32;;
42726;SDS011;28372;56.832;60.658;2022-07-24T15:29:01;14.75;;;5.18;;
42726;SDS011;28372;56.832;60.658;2022-07-24T15:31:29;10.93;;;5.55;;
42726;SDS011;28372;56.832;60.658;2022-07-24T15:34:02;12.63;;;5.38;;
42726;SDS011;28372;56.832;60.658;2022-07-24T15:36:33;14.95;;;5.90;;
42726;SDS011;28372;56.832;60.658;2022-07-24T15:39:01;11.30;;;5.93;;
42726;SDS011;28372;56.832;60.658;2022-07-24T15:41:29;9.93;;;5.97;;
42726;SDS011;28372;56.832;60.658;2022-07-24T15:43:57;9.48;;;5.68;;